sensor_id;sensor_type;location;lat;lon;timestamp;P1;durP1;ratioP1;P2;durP2;ratioP2
13102;SDS011;52970;46.752;17.108;2024-01-06T00:02:24;11.98;;;8.98;;
13102;SDS011;52970;46.752;17.108;2024-01-06T00:04:50;10.70;;;8.50;;
13102;SDS011;52970;46.752;17.108;2024-01-06T00:07:16;12.20;;;8.60;;
13102;SDS011;52970;46.752;17.108;2024-01-06T00:09:41;12.13;;;8.80;;
13102;SDS011;52970;46.752;17.108;2024-01-06T00:12:07;10.85;;;7.95;;
13102;SDS011;52970;46.752;17.108;2024-01-06T00:14:32;11.37;;;7.60;;
13102;SDS011;52970;46.752;17.108;2024-01-06T00:16:57;11.07;;;8.10;;
13102;SDS011;52970;46.752;17.108;2024-01-06T00:19:22;10.80;;;8.35;;
13102;SDS011;52970;46.752;17.108;2024-01-06T00:21:48;10.20;;;8.05;;
13102;SDS011;52970;46.752;17.108;2024-01-06T00:24:13;11.63;;;8.40;;
13102;SDS011;52970;46.752;17.108;2024-01-06T00:26:38;10.23;;;7.83;;
13102;SDS011;52970;46.752;17.108;2024-01-06T00:29:03;11.13;;;8.82;;
13102;SDS011;52970;46.752;17.108;2024-01-06T00:31:29;11.20;;;9.00;;
13102;SDS011;52970;46.752;17.108;2024-01-06T00:33:54;12.60;;;9.07;;
13102;SDS011;52970;46.752;17.108;2024-01-06T00:36:19;14.40;;;9.50;;
13102;SDS011;52970;46.752;17.108;2024-01-06T00:38:44;11.33;;;8.47;;
13102;SDS011;52970;46.752;17.108;2024-01-06T00:41:10;12.03;;;8.27;;
13102;SDS011;52970;46.752;17.108;2024-01-06T00:43:35;12.17;;;8.50;;
13102;SDS011;52970;46.752;17.108;2024-01-06T00:46:00;9.67;;;7.70;;
13102;SDS011;52970;46.752;17.108;2024-01-06T00:48:25;12.97;;;8.63;;
13102;SDS011;52970;46.752;17.108;2024-01-06T00:50:51;11.93;;;8.23;;
13102;SDS011;52970;46.752;17.108;2024-01-06T00:53:16;11.03;;;8.53;;
13102;SDS011;52970;46.752;17.108;2024-01-06T00:55:41;14.70;;;8.30;;
13102;SDS011;52970;46.752;17.108;2024-01-06T00:58:07;12.77;;;8.20;;
13102;SDS011;52970;46.752;17.108;2024-01-06T01:00:33;11.17;;;8.10;;
13102;SDS011;52970;46.752;17.108;2024-01-06T01:02:59;10.85;;;8.30;;
13102;SDS011;52970;46.752;17.108;2024-01-06T01:05:24;12.40;;;8.10;;
13102;SDS011;52970;46.752;17.108;2024-01-06T01:07:49;10.97;;;8.67;;
13102;SDS011;52970;46.752;17.108;2024-01-06T01:10:14;10.77;;;7.93;;
13102;SDS011;52970;46.752;17.108;2024-01-06T01:12:40;14.48;;;8.80;;
13102;SDS011;52970;46.752;17.108;2024-01-06T01:15:05;9.95;;;7.88;;
13102;SDS011;52970;46.752;17.108;2024-01-06T01:17:30;9.93;;;7.83;;
13102;SDS011;52970;46.752;17.108;2024-01-06T01:19:56;10.98;;;8.07;;
13102;SDS011;52970;46.752;17.108;2024-01-06T01:22:21;13.75;;;8.68;;
13102;SDS011;52970;46.752;17.108;2024-01-06T01:24:46;14.02;;;8.35;;
13102;SDS011;52970;46.752;17.108;2024-01-06T01:27:12;9.37;;;8.33;;
13102;SDS011;52970;46.752;17.108;2024-01-06T01:29:37;11.30;;;8.05;;
13102;SDS011;52970;46.752;17.108;2024-01-06T01:32:02;12.17;;;9.30;;
13102;SDS011;52970;46.752;17.108;2024-01-06T01:34:28;10.93;;;8.17;;
13102;SDS011;52970;46.752;17.108;2024-01-06T01:36:53;14.45;;;8.82;;
13102;SDS011;52970;46.752;17.108;2024-01-06T01:39:18;12.07;;;9.00;;
13102;SDS011;52970;46.752;17.108;2024-01-06T01:41:44;10.87;;;7.97;;
13102;SDS011;52970;46.752;17.108;2024-01-06T01:44:09;10.90;;;8.30;;
13102;SDS011;52970;46.752;17.108;2024-01-06T01:46:34;10.43;;;8.43;;
13102;SDS011;52970;46.752;17.108;2024-01-06T01:49:00;10.27;;;7.87;;
13102;SDS011;52970;46.752;17.108;2024-01-06T01:51:29;9.17;;;7.40;;
13102;SDS011;52970;46.752;17.108;2024-01-06T01:53:55;13.27;;;8.40;;
13102;SDS011;52970;46.752;17.108;2024-01-06T01:56:21;11.82;;;8.40;;
13102;SDS011;52970;46.752;17.108;2024-01-06T01:58:46;13.53;;;8.93;;
13102;SDS011;52970;46.752;17.108;2024-01-06T02:01:12;12.10;;;8.80;;
13102;SDS011;52970;46.752;17.108;2024-01-06T02:03:37;13.95;;;10.52;;
13102;SDS011;52970;46.752;17.108;2024-01-06T02:06:02;13.43;;;8.50;;
13102;SDS011;52970;46.752;17.108;2024-01-06T02:08:28;13.48;;;9.05;;
13102;SDS011;52970;46.752;17.108;2024-01-06T02:10:56;12.15;;;8.63;;
13102;SDS011;52970;46.752;17.108;2024-01-06T02:13:22;12.33;;;8.83;;
13102;SDS011;52970;46.752;17.108;2024-01-06T02:15:48;13.33;;;9.40;;
13102;SDS011;52970;46.752;17.108;2024-01-06T02:18:13;12.87;;;8.73;;
13102;SDS011;52970;46.752;17.108;2024-01-06T02:20:38;15.65;;;9.50;;
13102;SDS011;52970;46.752;17.108;2024-01-06T02:23:05;13.48;;;8.98;;
13102;SDS011;52970;46.752;17.108;2024-01-06T02:25:30;14.33;;;9.40;;
13102;SDS011;52970;46.752;17.108;2024-01-06T02:27:55;12.57;;;9.17;;
13102;SDS011;52970;46.752;17.108;2024-01-06T02:30:21;12.35;;;8.82;;
13102;SDS011;52970;46.752;17.108;2024-01-06T02:32:46;14.55;;;9.18;;
13102;SDS011;52970;46.752;17.108;2024-01-06T02:35:11;13.48;;;8.60;;
13102;SDS011;52970;46.752;17.108;2024-01-06T02:37:36;13.18;;;9.65;;
13102;SDS011;52970;46.752;17.108;2024-01-06T02:40:02;10.55;;;8.43;;
13102;SDS011;52970;46.752;17.108;2024-01-06T02:42:27;13.10;;;8.97;;
13102;SDS011;52970;46.752;17.108;2024-01-06T02:44:52;13.80;;;9.00;;
13102;SDS011;52970;46.752;17.108;2024-01-06T02:47:18;12.65;;;9.25;;
13102;SDS011;52970;46.752;17.108;2024-01-06T02:49:43;10.60;;;9.13;;
13102;SDS011;52970;46.752;17.108;2024-01-06T02:52:08;11.83;;;8.47;;
13102;SDS011;52970;46.752;17.108;2024-01-06T02:54:33;11.33;;;9.20;;
13102;SDS011;52970;46.752;17.108;2024-01-06T02:56:58;12.75;;;8.80;;
13102;SDS011;52970;46.752;17.108;2024-01-06T02:59:24;11.82;;;9.35;;
13102;SDS011;52970;46.752;17.108;2024-01-06T03:01:49;12.68;;;8.90;;
13102;SDS011;52970;46.752;17.108;2024-01-06T03:04:14;12.82;;;8.73;;
13102;SDS011;52970;46.752;17.108;2024-01-06T03:06:39;13.10;;;8.93;;
13102;SDS011;52970;46.752;17.108;2024-01-06T03:09:05;11.43;;;8.57;;
13102;SDS011;52970;46.752;17.108;2024-01-06T03:11:30;8.85;;;7.95;;
13102;SDS011;52970;46.752;17.108;2024-01-06T03:13:55;14.10;;;10.23;;
13102;SDS011;52970;46.752;17.108;2024-01-06T03:16:21;13.90;;;8.93;;
13102;SDS011;52970;46.752;17.108;2024-01-06T03:18:46;14.57;;;9.30;;
13102;SDS011;52970;46.752;17.108;2024-01-06T03:21:18;11.10;;;8.95;;
13102;SDS011;52970;46.752;17.108;2024-01-06T03:23:43;11.40;;;8.60;;
13102;SDS011;52970;46.752;17.108;2024-01-06T03:26:09;11.25;;;8.40;;
13102;SDS011;52970;46.752;17.108;2024-01-06T03:28:34;11.00;;;8.20;;
13102;SDS011;52970;46.752;17.108;2024-01-06T03:30:59;12.57;;;8.80;;
13102;SDS011;52970;46.752;17.108;2024-01-06T03:33:24;11.57;;;9.45;;
13102;SDS011;52970;46.752;17.108;2024-01-06T03:35:49;10.98;;;8.80;;
13102;SDS011;52970;46.752;17.108;2024-01-06T03:38:15;10.95;;;8.45;;
13102;SDS011;52970;46.752;17.108;2024-01-06T03:40:40;10.00;;;8.25;;
13102;SDS011;52970;46.752;17.108;2024-01-06T03:43:05;11.20;;;9.73;;
13102;SDS011;52970;46.752;17.108;2024-01-06T03:45:30;12.80;;;9.25;;
13102;SDS011;52970;46.752;17.108;2024-01-06T03:47:56;13.73;;;9.60;;
13102;SDS011;52970;46.752;17.108;2024-01-06T03:50:21;12.93;;;10.27;;
13102;SDS011;52970;46.752;17.108;2024-01-06T03:52:46;13.80;;;9.82;;
13102;SDS011;52970;46.752;17.108;2024-01-06T03:55:13;12.88;;;10.18;;
13102;SDS011;52970;46.752;17.108;2024-01-06T03:57:39;15.80;;;10.32;;
13102;SDS011;52970;46.752;17.108;2024-01-06T04:00:05;13.80;;;10.50;;
13102;SDS011;52970;46.752;17.108;2024-01-06T04:02:31;12.93;;;10.53;;
13102;SDS011;52970;46.752;17.108;2024-01-06T04:04:56;12.70;;;9.88;;
13102;SDS011;52970;46.752;17.108;2024-01-06T04:07:22;12.65;;;9.60;;
13102;SDS011;52970;46.752;17.108;2024-01-06T04:09:47;13.63;;;9.48;;
13102;SDS011;52970;46.752;17.108;2024-01-06T04:12:12;12.82;;;10.48;;
13102;SDS011;52970;46.752;17.108;2024-01-06T04:14:37;12.32;;;9.88;;
13102;SDS011;52970;46.752;17.108;2024-01-06T04:17:03;11.57;;;10.38;;
13102;SDS011;52970;46.752;17.108;2024-01-06T04:19:28;14.50;;;10.82;;
13102;SDS011;52970;46.752;17.108;2024-01-06T04:21:54;15.07;;;10.70;;
13102;SDS011;52970;46.752;17.108;2024-01-06T04:24:19;16.58;;;11.25;;
13102;SDS011;52970;46.752;17.108;2024-01-06T04:26:45;16.70;;;11.25;;
13102;SDS011;52970;46.752;17.108;2024-01-06T04:29:11;12.95;;;10.07;;
13102;SDS011;52970;46.752;17.108;2024-01-06T04:31:37;14.93;;;11.00;;
13102;SDS011;52970;46.752;17.108;2024-01-06T04:34:02;14.18;;;10.35;;
13102;SDS011;52970;46.752;17.108;2024-01-06T04:36:28;12.65;;;9.82;;
13102;SDS011;52970;46.752;17.108;2024-01-06T04:38:53;17.45;;;11.60;;
13102;SDS011;52970;46.752;17.108;2024-01-06T04:41:19;13.73;;;11.20;;
13102;SDS011;52970;46.752;17.108;2024-01-06T04:43:44;14.13;;;10.23;;
13102;SDS011;52970;46.752;17.108;2024-01-06T04:46:09;12.40;;;10.40;;
13102;SDS011;52970;46.752;17.108;2024-01-06T04:48:34;13.73;;;10.88;;
13102;SDS011;52970;46.752;17.108;2024-01-06T04:51:00;13.13;;;10.90;;
13102;SDS011;52970;46.752;17.108;2024-01-06T04:53:28;17.88;;;11.80;;
13102;SDS011;52970;46.752;17.108;2024-01-06T04:55:53;15.25;;;11.43;;
13102;SDS011;52970;46.752;17.108;2024-01-06T04:58:18;12.98;;;10.23;;
13102;SDS011;52970;46.752;17.108;2024-01-06T05:00:43;14.30;;;10.73;;
13102;SDS011;52970;46.752;17.108;2024-01-06T05:03:09;14.85;;;10.70;;
13102;SDS011;52970;46.752;17.108;2024-01-06T05:05:34;14.77;;;11.23;;
13102;SDS011;52970;46.752;17.108;2024-01-06T05:07:59;15.85;;;10.88;;
13102;SDS011;52970;46.752;17.108;2024-01-06T05:10:25;15.40;;;11.10;;
13102;SDS011;52970;46.752;17.108;2024-01-06T05:12:50;11.85;;;10.13;;
13102;SDS011;52970;46.752;17.108;2024-01-06T05:15:15;14.43;;;11.13;;
13102;SDS011;52970;46.752;17.108;2024-01-06T05:17:40;16.85;;;11.70;;
13102;SDS011;52970;46.752;17.108;2024-01-06T05:20:06;13.05;;;11.30;;
13102;SDS011;52970;46.752;17.108;2024-01-06T05:22:31;15.50;;;12.07;;
13102;SDS011;52970;46.752;17.108;2024-01-06T05:24:56;15.52;;;12.32;;
13102;SDS011;52970;46.752;17.108;2024-01-06T05:27:22;15.05;;;12.35;;
13102;SDS011;52970;46.752;17.108;2024-01-06T05:29:47;16.10;;;12.13;;
13102;SDS011;52970;46.752;17.108;2024-01-06T05:32:15;18.92;;;12.98;;
13102;SDS011;52970;46.752;17.108;2024-01-06T05:34:40;15.88;;;12.18;;
13102;SDS011;52970;46.752;17.108;2024-01-06T05:37:05;21.75;;;14.55;;
13102;SDS011;52970;46.752;17.108;2024-01-06T05:39:31;23.23;;;15.85;;
13102;SDS011;52970;46.752;17.108;2024-01-06T05:41:56;19.88;;;14.57;;
13102;SDS011;52970;46.752;17.108;2024-01-06T05:44:22;20.08;;;14.25;;
13102;SDS011;52970;46.752;17.108;2024-01-06T05:46:47;21.83;;;14.35;;
13102;SDS011;52970;46.752;17.108;2024-01-06T05:49:12;18.00;;;13.77;;
13102;SDS011;52970;46.752;17.108;2024-01-06T05:51:37;18.10;;;13.98;;
13102;SDS011;52970;46.752;17.108;2024-01-06T05:54:08;18.55;;;13.18;;
13102;SDS011;52970;46.752;17.108;2024-01-06T05:56:33;20.13;;;13.98;;
13102;SDS011;52970;46.752;17.108;2024-01-06T05:58:59;18.25;;;13.00;;
13102;SDS011;52970;46.752;17.108;2024-01-06T06:01:24;21.73;;;15.35;;
13102;SDS011;52970;46.752;17.108;2024-01-06T06:03:50;20.65;;;13.52;;
13102;SDS011;52970;46.752;17.108;2024-01-06T06:06:15;18.20;;;13.68;;
13102;SDS011;52970;46.752;17.108;2024-01-06T06:08:41;21.35;;;14.82;;
13102;SDS011;52970;46.752;17.108;2024-01-06T06:11:07;20.95;;;14.25;;
13102;SDS011;52970;46.752;17.108;2024-01-06T06:13:39;22.58;;;16.35;;
13102;SDS011;52970;46.752;17.108;2024-01-06T06:16:06;28.15;;;19.75;;
13102;SDS011;52970;46.752;17.108;2024-01-06T06:18:31;32.05;;;20.02;;
13102;SDS011;52970;46.752;17.108;2024-01-06T06:20:57;27.92;;;18.13;;
13102;SDS011;52970;46.752;17.108;2024-01-06T06:23:23;27.00;;;20.38;;
13102;SDS011;52970;46.752;17.108;2024-01-06T06:25:48;29.02;;;18.13;;
13102;SDS011;52970;46.752;17.108;2024-01-06T06:28:13;23.27;;;16.10;;
13102;SDS011;52970;46.752;17.108;2024-01-06T06:30:39;23.63;;;16.58;;
13102;SDS011;52970;46.752;17.108;2024-01-06T06:33:04;24.33;;;16.73;;
13102;SDS011;52970;46.752;17.108;2024-01-06T06:35:29;24.67;;;16.63;;
13102;SDS011;52970;46.752;17.108;2024-01-06T06:37:55;25.73;;;17.52;;
13102;SDS011;52970;46.752;17.108;2024-01-06T06:40:20;22.13;;;15.45;;
13102;SDS011;52970;46.752;17.108;2024-01-06T06:42:45;28.58;;;18.85;;
13102;SDS011;52970;46.752;17.108;2024-01-06T06:45:10;27.35;;;17.85;;
13102;SDS011;52970;46.752;17.108;2024-01-06T06:47:38;24.50;;;17.05;;
13102;SDS011;52970;46.752;17.108;2024-01-06T06:50:04;23.83;;;15.60;;
13102;SDS011;52970;46.752;17.108;2024-01-06T06:52:30;21.52;;;15.73;;
13102;SDS011;52970;46.752;17.108;2024-01-06T06:54:55;23.83;;;16.73;;
13102;SDS011;52970;46.752;17.108;2024-01-06T06:57:20;20.65;;;14.98;;
13102;SDS011;52970;46.752;17.108;2024-01-06T06:59:46;20.83;;;15.65;;
13102;SDS011;52970;46.752;17.108;2024-01-06T07:02:11;21.95;;;15.25;;
13102;SDS011;52970;46.752;17.108;2024-01-06T07:04:36;21.27;;;15.13;;
13102;SDS011;52970;46.752;17.108;2024-01-06T07:07:01;20.83;;;14.40;;
13102;SDS011;52970;46.752;17.108;2024-01-06T07:09:27;22.48;;;15.20;;
13102;SDS011;52970;46.752;17.108;2024-01-06T07:11:52;22.08;;;15.05;;
13102;SDS011;52970;46.752;17.108;2024-01-06T07:14:17;19.92;;;14.85;;
13102;SDS011;52970;46.752;17.108;2024-01-06T07:16:43;19.48;;;15.30;;
13102;SDS011;52970;46.752;17.108;2024-01-06T07:19:08;22.42;;;15.95;;
13102;SDS011;52970;46.752;17.108;2024-01-06T07:21:33;22.13;;;15.30;;
13102;SDS011;52970;46.752;17.108;2024-01-06T07:23:58;21.20;;;15.23;;
13102;SDS011;52970;46.752;17.108;2024-01-06T07:26:24;20.92;;;14.82;;
13102;SDS011;52970;46.752;17.108;2024-01-06T07:28:49;21.55;;;15.32;;
13102;SDS011;52970;46.752;17.108;2024-01-06T07:31:14;23.42;;;14.23;;
13102;SDS011;52970;46.752;17.108;2024-01-06T07:33:39;18.10;;;14.90;;
13102;SDS011;52970;46.752;17.108;2024-01-06T07:36:05;23.95;;;16.30;;
13102;SDS011;52970;46.752;17.108;2024-01-06T07:38:30;20.80;;;15.05;;
13102;SDS011;52970;46.752;17.108;2024-01-06T07:40:56;23.42;;;14.73;;
13102;SDS011;52970;46.752;17.108;2024-01-06T07:43:21;24.30;;;15.30;;
13102;SDS011;52970;46.752;17.108;2024-01-06T07:45:46;21.85;;;16.65;;
13102;SDS011;52970;46.752;17.108;2024-01-06T07:48:11;22.45;;;16.02;;
13102;SDS011;52970;46.752;17.108;2024-01-06T07:50:37;21.48;;;15.88;;
13102;SDS011;52970;46.752;17.108;2024-01-06T07:53:03;22.55;;;17.73;;
13102;SDS011;52970;46.752;17.108;2024-01-06T07:55:28;23.23;;;16.38;;
13102;SDS011;52970;46.752;17.108;2024-01-06T07:57:54;23.27;;;16.35;;
13102;SDS011;52970;46.752;17.108;2024-01-06T08:00:19;29.45;;;20.20;;
13102;SDS011;52970;46.752;17.108;2024-01-06T08:02:44;58.03;;;35.33;;
13102;SDS011;52970;46.752;17.108;2024-01-06T08:05:10;48.55;;;31.20;;
13102;SDS011;52970;46.752;17.108;2024-01-06T08:07:36;45.50;;;30.27;;
13102;SDS011;52970;46.752;17.108;2024-01-06T08:10:02;42.30;;;28.33;;
13102;SDS011;52970;46.752;17.108;2024-01-06T08:12:30;40.92;;;24.65;;
13102;SDS011;52970;46.752;17.108;2024-01-06T08:14:55;33.05;;;23.55;;
13102;SDS011;52970;46.752;17.108;2024-01-06T08:17:20;35.55;;;23.63;;
13102;SDS011;52970;46.752;17.108;2024-01-06T08:19:46;32.33;;;23.48;;
13102;SDS011;52970;46.752;17.108;2024-01-06T08:22:14;31.52;;;22.33;;
13102;SDS011;52970;46.752;17.108;2024-01-06T08:24:40;32.47;;;22.88;;
13102;SDS011;52970;46.752;17.108;2024-01-06T08:27:05;32.90;;;20.90;;
13102;SDS011;52970;46.752;17.108;2024-01-06T08:29:30;32.08;;;21.67;;
13102;SDS011;52970;46.752;17.108;2024-01-06T08:31:56;29.60;;;22.45;;
13102;SDS011;52970;46.752;17.108;2024-01-06T08:34:21;30.50;;;22.35;;
13102;SDS011;52970;46.752;17.108;2024-01-06T08:36:46;29.02;;;21.05;;
13102;SDS011;52970;46.752;17.108;2024-01-06T08:39:12;31.10;;;21.85;;
13102;SDS011;52970;46.752;17.108;2024-01-06T08:41:37;40.85;;;25.00;;
13102;SDS011;52970;46.752;17.108;2024-01-06T08:44:03;32.20;;;22.67;;
13102;SDS011;52970;46.752;17.108;2024-01-06T08:46:28;32.78;;;22.65;;
13102;SDS011;52970;46.752;17.108;2024-01-06T08:48:53;32.90;;;22.45;;
13102;SDS011;52970;46.752;17.108;2024-01-06T08:51:18;29.52;;;20.02;;
13102;SDS011;52970;46.752;17.108;2024-01-06T08:53:45;32.70;;;22.48;;
13102;SDS011;52970;46.752;17.108;2024-01-06T08:56:11;29.23;;;21.40;;
13102;SDS011;52970;46.752;17.108;2024-01-06T08:58:36;28.45;;;19.85;;
13102;SDS011;52970;46.752;17.108;2024-01-06T09:01:01;30.77;;;22.25;;
13102;SDS011;52970;46.752;17.108;2024-01-06T09:03:26;32.20;;;23.50;;
13102;SDS011;52970;46.752;17.108;2024-01-06T09:05:52;36.72;;;24.60;;
13102;SDS011;52970;46.752;17.108;2024-01-06T09:08:18;33.38;;;24.25;;
13102;SDS011;52970;46.752;17.108;2024-01-06T09:10:43;30.00;;;22.50;;
13102;SDS011;52970;46.752;17.108;2024-01-06T09:13:08;31.67;;;22.95;;
13102;SDS011;52970;46.752;17.108;2024-01-06T09:15:34;29.33;;;22.65;;
13102;SDS011;52970;46.752;17.108;2024-01-06T09:17:59;26.45;;;20.27;;
13102;SDS011;52970;46.752;17.108;2024-01-06T09:20:25;30.95;;;22.65;;
13102;SDS011;52970;46.752;17.108;2024-01-06T09:22:50;37.13;;;26.20;;
13102;SDS011;52970;46.752;17.108;2024-01-06T09:25:15;34.60;;;23.02;;
13102;SDS011;52970;46.752;17.108;2024-01-06T09:27:40;29.88;;;22.13;;
13102;SDS011;52970;46.752;17.108;2024-01-06T09:30:06;32.25;;;22.38;;
13102;SDS011;52970;46.752;17.108;2024-01-06T09:32:33;33.72;;;24.02;;
13102;SDS011;52970;46.752;17.108;2024-01-06T09:34:58;33.33;;;24.35;;
13102;SDS011;52970;46.752;17.108;2024-01-06T09:37:23;31.83;;;22.65;;
13102;SDS011;52970;46.752;17.108;2024-01-06T09:39:48;33.13;;;23.15;;
13102;SDS011;52970;46.752;17.108;2024-01-06T09:42:14;39.45;;;29.85;;
13102;SDS011;52970;46.752;17.108;2024-01-06T09:44:39;38.40;;;26.27;;
13102;SDS011;52970;46.752;17.108;2024-01-06T09:47:04;39.20;;;27.55;;
13102;SDS011;52970;46.752;17.108;2024-01-06T09:49:31;38.53;;;25.85;;
13102;SDS011;52970;46.752;17.108;2024-01-06T09:51:58;37.05;;;25.55;;
13102;SDS011;52970;46.752;17.108;2024-01-06T09:54:23;33.67;;;22.27;;
13102;SDS011;52970;46.752;17.108;2024-01-06T09:56:50;28.15;;;21.10;;
13102;SDS011;52970;46.752;17.108;2024-01-06T09:59:15;24.50;;;18.90;;
13102;SDS011;52970;46.752;17.108;2024-01-06T10:01:41;27.42;;;20.55;;
13102;SDS011;52970;46.752;17.108;2024-01-06T10:04:06;28.25;;;19.48;;
13102;SDS011;52970;46.752;17.108;2024-01-06T10:06:32;22.98;;;17.70;;
13102;SDS011;52970;46.752;17.108;2024-01-06T10:08:57;22.65;;;16.25;;
13102;SDS011;52970;46.752;17.108;2024-01-06T10:11:23;21.77;;;16.23;;
13102;SDS011;52970;46.752;17.108;2024-01-06T10:13:49;24.98;;;16.95;;
13102;SDS011;52970;46.752;17.108;2024-01-06T10:16:16;22.77;;;16.13;;
13102;SDS011;52970;46.752;17.108;2024-01-06T10:18:41;21.02;;;16.23;;
13102;SDS011;52970;46.752;17.108;2024-01-06T10:21:06;22.17;;;15.52;;
13102;SDS011;52970;46.752;17.108;2024-01-06T10:23:32;21.52;;;16.92;;
13102;SDS011;52970;46.752;17.108;2024-01-06T10:25:58;26.00;;;20.00;;
13102;SDS011;52970;46.752;17.108;2024-01-06T10:28:23;28.63;;;20.80;;
13102;SDS011;52970;46.752;17.108;2024-01-06T10:30:52;31.70;;;25.25;;
13102;SDS011;52970;46.752;17.108;2024-01-06T10:33:21;25.90;;;19.50;;
13102;SDS011;52970;46.752;17.108;2024-01-06T10:35:47;71.50;;;50.50;;
13102;SDS011;52970;46.752;17.108;2024-01-06T10:38:12;33.70;;;27.20;;
13102;SDS011;52970;46.752;17.108;2024-01-06T10:40:38;25.23;;;19.75;;
13102;SDS011;52970;46.752;17.108;2024-01-06T10:43:03;27.60;;;21.00;;
13102;SDS011;52970;46.752;17.108;2024-01-06T10:45:30;21.67;;;17.20;;
13102;SDS011;52970;46.752;17.108;2024-01-06T10:47:55;38.28;;;24.83;;
13102;SDS011;52970;46.752;17.108;2024-01-06T10:50:21;21.58;;;16.60;;
13102;SDS011;52970;46.752;17.108;2024-01-06T10:52:47;29.60;;;20.13;;
13102;SDS011;52970;46.752;17.108;2024-01-06T10:55:15;22.08;;;15.68;;
13102;SDS011;52970;46.752;17.108;2024-01-06T10:57:42;20.00;;;15.80;;
13102;SDS011;52970;46.752;17.108;2024-01-06T11:00:08;19.98;;;14.70;;
13102;SDS011;52970;46.752;17.108;2024-01-06T11:02:35;30.63;;;23.23;;
13102;SDS011;52970;46.752;17.108;2024-01-06T11:05:00;26.70;;;19.83;;
13102;SDS011;52970;46.752;17.108;2024-01-06T11:07:25;27.75;;;20.67;;
13102;SDS011;52970;46.752;17.108;2024-01-06T11:09:58;31.55;;;25.42;;
13102;SDS011;52970;46.752;17.108;2024-01-06T11:12:24;29.55;;;24.27;;
13102;SDS011;52970;46.752;17.108;2024-01-06T11:14:51;22.73;;;18.05;;
13102;SDS011;52970;46.752;17.108;2024-01-06T11:20:07;27.73;;;24.15;;
13102;SDS011;52970;46.752;17.108;2024-01-06T11:22:32;26.52;;;20.15;;
13102;SDS011;52970;46.752;17.108;2024-01-06T11:25:04;22.63;;;18.88;;
13102;SDS011;52970;46.752;17.108;2024-01-06T11:27:30;23.50;;;17.80;;
13102;SDS011;52970;46.752;17.108;2024-01-06T11:29:57;23.42;;;18.25;;
13102;SDS011;52970;46.752;17.108;2024-01-06T11:32:26;21.08;;;16.25;;
13102;SDS011;52970;46.752;17.108;2024-01-06T11:34:55;21.33;;;17.27;;
13102;SDS011;52970;46.752;17.108;2024-01-06T11:37:34;24.27;;;18.52;;
13102;SDS011;52970;46.752;17.108;2024-01-06T11:40:01;26.23;;;18.52;;
13102;SDS011;52970;46.752;17.108;2024-01-06T11:42:33;20.98;;;18.00;;
13102;SDS011;52970;46.752;17.108;2024-01-06T11:45:03;21.33;;;16.55;;
13102;SDS011;52970;46.752;17.108;2024-01-06T11:47:28;18.55;;;15.88;;
13102;SDS011;52970;46.752;17.108;2024-01-06T11:49:55;22.08;;;16.75;;
13102;SDS011;52970;46.752;17.108;2024-01-06T11:52:21;20.80;;;16.67;;
13102;SDS011;52970;46.752;17.108;2024-01-06T11:54:47;24.10;;;17.42;;
13102;SDS011;52970;46.752;17.108;2024-01-06T11:57:12;19.25;;;14.50;;
13102;SDS011;52970;46.752;17.108;2024-01-06T11:59:37;17.92;;;14.68;;
13102;SDS011;52970;46.752;17.108;2024-01-06T12:02:03;20.98;;;16.88;;
13102;SDS011;52970;46.752;17.108;2024-01-06T12:04:28;16.63;;;14.10;;
13102;SDS011;52970;46.752;17.108;2024-01-06T12:07:04;21.00;;;16.48;;
13102;SDS011;52970;46.752;17.108;2024-01-06T12:09:29;21.70;;;16.45;;
13102;SDS011;52970;46.752;17.108;2024-01-06T12:12:03;18.70;;;14.65;;
13102;SDS011;52970;46.752;17.108;2024-01-06T12:14:30;18.98;;;15.15;;
13102;SDS011;52970;46.752;17.108;2024-01-06T12:16:55;18.75;;;14.45;;
13102;SDS011;52970;46.752;17.108;2024-01-06T12:19:25;19.48;;;16.15;;
13102;SDS011;52970;46.752;17.108;2024-01-06T12:21:50;26.38;;;19.70;;
13102;SDS011;52970;46.752;17.108;2024-01-06T12:24:16;25.42;;;19.55;;
13102;SDS011;52970;46.752;17.108;2024-01-06T12:26:48;14.80;;;12.32;;
13102;SDS011;52970;46.752;17.108;2024-01-06T12:29:14;12.70;;;10.80;;
13102;SDS011;52970;46.752;17.108;2024-01-06T12:31:39;14.45;;;12.65;;
13102;SDS011;52970;46.752;17.108;2024-01-06T12:34:05;16.45;;;13.18;;
13102;SDS011;52970;46.752;17.108;2024-01-06T12:36:32;17.70;;;14.13;;
13102;SDS011;52970;46.752;17.108;2024-01-06T12:38:58;14.15;;;11.95;;
13102;SDS011;52970;46.752;17.108;2024-01-06T12:41:24;12.90;;;11.60;;
13102;SDS011;52970;46.752;17.108;2024-01-06T12:43:49;10.73;;;9.50;;
13102;SDS011;52970;46.752;17.108;2024-01-06T12:46:14;10.95;;;9.55;;
13102;SDS011;52970;46.752;17.108;2024-01-06T12:48:40;9.80;;;8.80;;
13102;SDS011;52970;46.752;17.108;2024-01-06T12:51:05;10.70;;;8.98;;
13102;SDS011;52970;46.752;17.108;2024-01-06T12:53:30;15.77;;;11.32;;
13102;SDS011;52970;46.752;17.108;2024-01-06T12:55:56;12.55;;;10.65;;
13102;SDS011;52970;46.752;17.108;2024-01-06T12:58:21;12.07;;;10.77;;
13102;SDS011;52970;46.752;17.108;2024-01-06T13:00:47;23.27;;;17.58;;
13102;SDS011;52970;46.752;17.108;2024-01-06T13:03:12;18.13;;;14.27;;
13102;SDS011;52970;46.752;17.108;2024-01-06T13:05:39;28.48;;;19.65;;
13102;SDS011;52970;46.752;17.108;2024-01-06T13:08:04;19.52;;;16.00;;
13102;SDS011;52970;46.752;17.108;2024-01-06T13:10:30;26.25;;;17.35;;
13102;SDS011;52970;46.752;17.108;2024-01-06T13:12:55;15.88;;;12.70;;
13102;SDS011;52970;46.752;17.108;2024-01-06T13:15:20;16.05;;;13.45;;
13102;SDS011;52970;46.752;17.108;2024-01-06T13:17:46;11.30;;;10.13;;
13102;SDS011;52970;46.752;17.108;2024-01-06T13:20:11;13.48;;;12.07;;
13102;SDS011;52970;46.752;17.108;2024-01-06T13:22:36;10.18;;;9.18;;
13102;SDS011;52970;46.752;17.108;2024-01-06T13:25:02;9.27;;;8.27;;
13102;SDS011;52970;46.752;17.108;2024-01-06T13:27:28;9.57;;;8.20;;
13102;SDS011;52970;46.752;17.108;2024-01-06T13:29:54;10.55;;;8.43;;
13102;SDS011;52970;46.752;17.108;2024-01-06T13:32:19;9.50;;;8.18;;
13102;SDS011;52970;46.752;17.108;2024-01-06T13:34:45;9.30;;;8.30;;
13102;SDS011;52970;46.752;17.108;2024-01-06T13:37:10;8.55;;;7.68;;
13102;SDS011;52970;46.752;17.108;2024-01-06T13:39:36;9.48;;;8.48;;
13102;SDS011;52970;46.752;17.108;2024-01-06T13:42:01;9.45;;;8.57;;
13102;SDS011;52970;46.752;17.108;2024-01-06T13:44:28;8.40;;;7.63;;
13102;SDS011;52970;46.752;17.108;2024-01-06T13:46:53;7.22;;;6.55;;
13102;SDS011;52970;46.752;17.108;2024-01-06T13:49:20;8.52;;;7.72;;
13102;SDS011;52970;46.752;17.108;2024-01-06T13:51:45;9.85;;;8.32;;
13102;SDS011;52970;46.752;17.108;2024-01-06T13:54:10;9.27;;;7.90;;
13102;SDS011;52970;46.752;17.108;2024-01-06T13:56:36;12.00;;;9.00;;
13102;SDS011;52970;46.752;17.108;2024-01-06T13:59:02;11.00;;;8.38;;
13102;SDS011;52970;46.752;17.108;2024-01-06T14:01:27;6.17;;;5.67;;
13102;SDS011;52970;46.752;17.108;2024-01-06T14:03:52;6.43;;;5.80;;
13102;SDS011;52970;46.752;17.108;2024-01-06T14:06:23;7.03;;;6.32;;
13102;SDS011;52970;46.752;17.108;2024-01-06T14:08:49;5.97;;;5.47;;